Time;durP1;ratioP1;P1;durP2;ratioP2;P2;SDS_P1;SDS_P2;PMS_P1;PMS_P2;Temp;Humidity;BMP_temperature;BMP_pressure;BME280_temperature;BME280_humidity;BME280_pressure;Samples;Min_cycle;Max_cycle;Signal;HPM_P1;HPM_P2
2023/08/30 00:00:43;;;;;;;0.25;0.25;;;13.70;99.90;;;;;;4989841;28;20153;-71
2023/08/30 00:03:08;;;;;;;0.40;0.40;;;13.70;99.90;;;;;;4979163;28;20166;-71
2023/08/30 00:05:38;;;;;;;0.40;0.40;;;13.60;99.90;;;;;;4980429;28;20061;-71
2023/08/30 00:08:04;;;;;;;0.82;0.82;;;13.60;99.90;;;;;;4986843;28;20129;-71
2023/08/30 00:10:29;;;;;;;0.30;0.30;;;13.50;99.90;;;;;;5001275;28;20134;-71
2023/08/30 00:12:55;;;;;;;0.60;0.60;;;13.50;99.90;;;;;;4994059;28;20046;-70
2023/08/30 00:15:20;;;;;;;0.40;0.40;;;13.40;99.90;;;;;;4990158;28;20049;-71
2023/08/30 00:17:46;;;;;;;0.55;0.55;;;13.40;99.90;;;;;;5003167;28;20045;-71
2023/08/30 00:20:14;;;;;;;0.30;0.30;;;13.30;99.90;;;;;;4989721;28;20046;-71
2023/08/30 00:22:40;;;;;;;0.35;0.35;;;13.30;99.90;;;;;;5006646;28;20049;-71
2023/08/30 00:25:06;;;;;;;0.60;0.60;;;13.30;99.90;;;;;;4990709;28;20056;-71
2023/08/30 00:27:32;;;;;;;0.43;0.43;;;13.30;99.90;;;;;;4987741;28;20121;-71
2023/08/30 00:29:58;;;;;;;0.40;0.40;;;13.20;99.90;;;;;;4989881;28;20129;-71
2023/08/30 00:32:23;;;;;;;0.40;0.40;;;13.20;99.90;;;;;;5003151;28;20060;-71
2023/08/30 00:34:53;;;;;;;0.40;0.40;;;13.20;99.90;;;;;;4988665;28;20061;-71
2023/08/30 00:37:18;;;;;;;0.30;0.30;;;13.20;99.90;;;;;;5000031;28;20057;-71
2023/08/30 00:39:44;;;;;;;0.70;0.70;;;13.20;99.90;;;;;;4987418;28;20491;-70
2023/08/30 00:42:10;;;;;;;0.30;0.30;;;13.20;99.90;;;;;;5012108;28;20050;-71
2023/08/30 00:44:36;;;;;;;0.65;0.65;;;13.20;99.90;;;;;;4992499;28;20112;-71
2023/08/30 00:47:02;;;;;;;0.60;0.60;;;13.20;99.90;;;;;;5001625;28;20050;-71
2023/08/30 00:49:30;;;;;;;0.35;0.35;;;13.20;99.90;;;;;;4987431;28;20048;-71
2023/08/30 00:52:01;;;;;;;0.40;0.40;;;13.20;99.90;;;;;;4995891;28;20050;-71
2023/08/30 00:54:27;;;;;;;0.30;0.30;;;13.20;99.90;;;;;;5006872;28;20038;-71
2023/08/30 00:56:54;;;;;;;0.50;0.50;;;13.20;99.90;;;;;;5003836;28;20057;-71
2023/08/30 00:59:21;;;;;;;0.47;0.47;;;13.20;99.90;;;;;;4990821;28;20054;-71
2023/08/30 01:01:48;;;;;;;0.30;0.30;;;13.20;99.90;;;;;;4987962;28;20108;-71
2023/08/30 01:04:14;;;;;;;0.47;0.47;;;13.20;99.90;;;;;;4991727;28;20072;-71
2023/08/30 01:06:39;;;;;;;0.63;0.47;;;13.20;99.90;;;;;;5003900;28;20124;-71
2023/08/30 01:09:06;;;;;;;0.40;0.40;;;13.10;99.90;;;;;;4991035;28;20220;-71
2023/08/30 01:11:59;;;;;;;0.95;0.63;;;13.10;99.90;;;;;;4985789;28;20125;-70
2023/08/30 01:14:34;;;;;;;1.65;0.80;;;13.10;99.90;;;;;;5001680;28;20053;-71
2023/08/30 01:17:00;;;;;;;0.30;0.30;;;13.10;99.90;;;;;;4989812;28;20050;-71
2023/08/30 01:19:47;;;;;;;0.45;0.45;;;13.00;99.90;;;;;;4989157;28;20050;-70
2023/08/30 01:22:34;;;;;;;0.45;0.45;;;13.00;99.90;;;;;;4997468;28;20462;-70
2023/08/30 01:25:15;;;;;;;0.20;0.20;;;13.00;99.90;;;;;;4989120;28;20500;-71
2023/08/30 01:27:41;;;;;;;0.40;0.40;;;12.90;99.90;;;;;;4979402;28;20061;-71
2023/08/30 01:30:10;;;;;;;0.50;0.50;;;12.90;99.90;;;;;;5005657;28;20496;-71
2023/08/30 01:32:37;;;;;;;1.17;0.95;;;12.80;99.90;;;;;;4990109;28;20038;-71
2023/08/30 01:35:05;;;;;;;0.40;0.40;;;12.80;99.90;;;;;;4986762;28;20049;-71
2023/08/30 01:37:32;;;;;;;0.50;0.50;;;12.70;99.90;;;;;;5000710;28;20625;-72
2023/08/30 01:39:59;;;;;;;0.20;0.20;;;12.70;99.90;;;;;;4992091;28;20301;-71
2023/08/30 01:42:26;;;;;;;0.30;0.30;;;12.70;99.90;;;;;;4979551;28;20104;-71
2023/08/30 01:44:57;;;;;;;0.50;0.50;;;12.60;99.90;;;;;;4984143;28;20125;-71
2023/08/30 01:47:25;;;;;;;0.22;0.22;;;12.60;99.90;;;;;;4982901;28;20046;-71
2023/08/30 01:49:53;;;;;;;0.77;0.77;;;12.60;99.90;;;;;;4996272;28;20081;-71
2023/08/30 01:52:19;;;;;;;0.40;0.40;;;12.60;99.90;;;;;;4991707;28;20179;-71
2023/08/30 01:54:46;;;;;;;0.30;0.30;;;12.50;99.90;;;;;;4988383;28;20411;-71
2023/08/30 01:57:13;;;;;;;0.40;0.40;;;12.50;99.90;;;;;;4999882;28;20042;-71
2023/08/30 01:59:38;;;;;;;0.22;0.22;;;12.50;99.90;;;;;;4986287;28;20156;-71
2023/08/30 02:02:04;;;;;;;0.30;0.30;;;12.40;99.90;;;;;;4992105;28;20077;-71
2023/08/30 02:04:31;;;;;;;0.50;0.50;;;12.40;99.90;;;;;;4984419;28;20100;-71
2023/08/30 02:07:00;;;;;;;0.50;0.50;;;12.40;99.90;;;;;;4988947;28;20125;-73
2023/08/30 02:09:42;;;;;;;0.50;0.50;;;12.30;99.90;;;;;;4981603;28;20052;-73
2023/08/30 02:12:13;;;;;;;0.40;0.40;;;12.30;99.90;;;;;;5003590;28;20046;-72
2023/08/30 02:14:41;;;;;;;0.30;0.30;;;12.30;99.90;;;;;;4987469;28;20562;-73
2023/08/30 02:17:07;;;;;;;0.32;0.32;;;12.20;99.90;;;;;;4987826;28;20042;-72
2023/08/30 02:19:34;;;;;;;0.52;0.52;;;12.20;99.90;;;;;;4990029;28;20128;-72
2023/08/30 02:21:59;;;;;;;0.50;0.50;;;12.20;99.90;;;;;;4991080;28;20049;-72
2023/08/30 02:24:25;;;;;;;0.50;0.50;;;12.10;99.90;;;;;;4990315;28;20157;-72
2023/08/30 02:26:51;;;;;;;0.40;0.40;;;12.10;99.90;;;;;;5000892;28;20050;-72
2023/08/30 02:29:16;;;;;;;0.70;0.63;;;12.10;99.90;;;;;;5004737;28;20718;-72
2023/08/30 02:31:42;;;;;;;0.38;0.38;;;12.00;99.90;;;;;;4999094;28;20080;-72
2023/08/30 02:34:08;;;;;;;0.50;0.50;;;12.00;99.90;;;;;;4997948;28;20052;-72
2023/08/30 02:36:33;;;;;;;0.88;0.88;;;12.00;99.90;;;;;;4985155;28;20502;-72
2023/08/30 02:38:59;;;;;;;0.40;0.40;;;11.90;99.90;;;;;;4988164;28;20406;-72
2023/08/30 02:41:24;;;;;;;0.30;0.30;;;11.90;99.90;;;;;;4982211;28;20602;-72
2023/08/30 02:43:50;;;;;;;0.50;0.47;;;11.90;99.90;;;;;;4983898;28;20050;-72
2023/08/30 02:46:16;;;;;;;0.30;0.30;;;11.90;99.90;;;;;;4995408;28;20038;-72
2023/08/30 02:48:43;;;;;;;0.60;0.60;;;11.80;99.90;;;;;;4988479;28;20084;-73
2023/08/30 02:51:09;;;;;;;0.30;0.30;;;11.80;99.90;;;;;;5002809;28;20592;-73
2023/08/30 02:53:34;;;;;;;0.50;0.50;;;11.70;99.90;;;;;;4990670;28;20038;-73
2023/08/30 02:56:01;;;;;;;0.45;0.45;;;11.70;99.90;;;;;;4983147;28;20487;-72
2023/08/30 02:58:27;;;;;;;0.60;0.60;;;11.70;99.90;;;;;;4995152;28;20050;-72
2023/08/30 03:00:53;;;;;;;0.30;0.30;;;11.60;99.90;;;;;;4981975;28;20119;-72
2023/08/30 03:03:19;;;;;;;0.30;0.30;;;11.60;99.90;;;;;;5006583;28;20180;-72
2023/08/30 03:05:44;;;;;;;0.40;0.40;;;11.60;99.90;;;;;;4990063;28;20046;-72
2023/08/30 03:08:10;;;;;;;0.30;0.30;;;11.60;99.90;;;;;;5001400;28;20085;-72
2023/08/30 03:10:35;;;;;;;0.40;0.40;;;11.50;99.90;;;;;;4990909;28;20487;-72
2023/08/30 03:13:01;;;;;;;0.40;0.40;;;11.50;99.90;;;;;;4979747;28;20052;-72
2023/08/30 03:15:27;;;;;;;0.30;0.30;;;11.50;99.90;;;;;;4990286;28;20068;-72
2023/08/30 03:17:52;;;;;;;0.40;0.40;;;11.40;99.90;;;;;;4989970;28;20100;-72
2023/08/30 03:20:18;;;;;;;0.30;0.30;;;11.40;99.90;;;;;;5007615;28;20060;-73
2023/08/30 03:22:44;;;;;;;0.28;0.28;;;11.40;99.90;;;;;;4986461;28;20061;-72
2023/08/30 03:25:10;;;;;;;0.40;0.40;;;11.40;99.90;;;;;;4985347;28;20079;-72
2023/08/30 03:27:35;;;;;;;0.98;0.98;;;11.40;99.90;;;;;;4997121;28;20049;-72
2023/08/30 03:30:02;;;;;;;0.25;0.25;;;11.30;99.90;;;;;;4987039;28;20038;-72
2023/08/30 03:32:28;;;;;;;1.55;0.60;;;11.30;99.90;;;;;;4993314;28;20137;-72
2023/08/30 03:34:54;;;;;;;0.40;0.40;;;11.30;99.90;;;;;;4995360;28;20121;-73
2023/08/30 03:37:19;;;;;;;0.40;0.40;;;11.30;99.90;;;;;;4996881;28;21571;-72
2023/08/30 03:39:45;;;;;;;1.55;0.65;;;11.30;99.90;;;;;;5001197;28;20104;-73
2023/08/30 03:42:11;;;;;;;0.32;0.32;;;11.20;99.90;;;;;;5003467;28;20108;-73
2023/08/30 03:44:37;;;;;;;0.50;0.50;;;11.20;99.90;;;;;;4987248;28;20046;-72
2023/08/30 03:47:03;;;;;;;0.30;0.30;;;11.20;99.90;;;;;;4987948;28;20046;-73
2023/08/30 03:49:29;;;;;;;0.40;0.40;;;11.20;99.90;;;;;;5005187;28;20045;-72
2023/08/30 03:51:55;;;;;;;0.60;0.60;;;11.30;99.90;;;;;;4984387;28;20046;-73
2023/08/30 03:54:20;;;;;;;0.40;0.40;;;11.20;99.90;;;;;;4989133;28;20088;-72
2023/08/30 03:56:46;;;;;;;0.40;0.40;;;11.20;99.90;;;;;;4982043;28;20411;-73
2023/08/30 03:59:12;;;;;;;0.50;0.50;;;11.20;99.90;;;;;;4981528;28;20064;-72
2023/08/30 04:01:38;;;;;;;0.30;0.30;;;11.20;99.90;;;;;;4985354;28;20054;-72
2023/08/30 04:04:04;;;;;;;0.40;0.40;;;11.20;99.90;;;;;;5004437;28;20061;-73
2023/08/30 04:06:30;;;;;;;0.20;0.20;;;11.20;99.90;;;;;;4985891;28;20045;-73
2023/08/30 04:08:56;;;;;;;0.40;0.40;;;11.20;99.90;;;;;;4986020;28;20038;-72
2023/08/30 04:11:23;;;;;;;0.28;0.28;;;11.20;99.90;;;;;;4996560;28;20451;-72
2023/08/30 04:13:49;;;;;;;0.22;0.22;;;11.20;99.90;;;;;;4988409;28;20120;-72
2023/08/30 04:16:15;;;;;;;0.63;0.63;;;11.20;99.90;;;;;;5003254;28;20050;-72
2023/08/30 04:18:40;;;;;;;0.30;0.30;;;11.20;99.90;;;;;;4992466;28;20042;-72
2023/08/30 04:21:08;;;;;;;0.40;0.40;;;11.20;99.90;;;;;;4981787;28;20454;-72
2023/08/30 04:23:34;;;;;;;0.20;0.20;;;11.20;99.90;;;;;;5000766;28;20103;-72
2023/08/30 04:25:59;;;;;;;0.43;0.43;;;11.20;99.90;;;;;;4986972;28;20479;-72
2023/08/30 04:28:26;;;;;;;0.60;0.60;;;11.20;99.90;;;;;;4985771;28;20081;-72
2023/08/30 04:30:56;;;;;;;0.40;0.40;;;11.20;99.90;;;;;;5004862;28;20404;-72
2023/08/30 04:33:22;;;;;;;0.30;0.30;;;11.20;99.90;;;;;;4987084;28;20046;-72
2023/08/30 04:35:52;;;;;;;0.35;0.35;;;11.20;99.90;;;;;;5009887;28;20054;-72
2023/08/30 04:38:18;;;;;;;0.40;0.40;;;11.20;99.90;;;;;;4998928;28;20476;-72
2023/08/30 04:40:43;;;;;;;0.40;0.40;;;11.20;99.90;;;;;;4998017;28;20058;-72
2023/08/30 04:43:09;;;;;;;0.68;0.68;;;11.20;99.90;;;;;;5001961;28;20042;-72
2023/08/30 04:45:35;;;;;;;0.68;0.50;;;11.30;99.90;;;;;;5006200;28;20518;-71
2023/08/30 04:48:01;;;;;;;0.40;0.40;;;11.30;99.90;;;;;;4975901;28;20156;-73
2023/08/30 04:50:27;;;;;;;0.52;0.52;;;11.30;99.90;;;;;;4987327;28;20133;-72
2023/08/30 04:52:52;;;;;;;0.45;0.28;;;11.30;99.90;;;;;;5000681;28;20061;-72
2023/08/30 04:55:18;;;;;;;2.00;0.73;;;11.40;99.90;;;;;;4985183;28;20609;-72
2023/08/30 04:57:47;;;;;;;0.30;0.30;;;11.50;99.90;;;;;;4977697;28;20124;-72
2023/08/30 05:00:14;;;;;;;0.38;0.38;;;11.50;99.90;;;;;;5001308;28;20057;-72
2023/08/30 05:02:42;;;;;;;0.50;0.50;;;11.50;99.90;;;;;;4985256;28;20050;-72
2023/08/30 05:05:08;;;;;;;0.30;0.30;;;11.60;99.90;;;;;;4982932;28;20050;-72
2023/08/30 05:07:33;;;;;;;0.47;0.47;;;11.60;99.90;;;;;;4996785;28;20041;-72
2023/08/30 05:09:59;;;;;;;0.50;0.50;;;11.60;99.90;;;;;;4996992;28;20050;-72
2023/08/30 05:12:24;;;;;;;0.40;0.40;;;11.70;99.90;;;;;;4992722;28;20045;-72
2023/08/30 05:14:50;;;;;;;0.60;0.60;;;11.70;99.90;;;;;;4989692;28;20431;-72
2023/08/30 05:17:16;;;;;;;0.85;0.85;;;11.80;99.90;;;;;;4974555;28;20050;-72
2023/08/30 05:19:41;;;;;;;0.98;0.95;;;11.80;99.90;;;;;;4988205;28;20050;-72
2023/08/30 05:22:07;;;;;;;0.40;0.40;;;11.80;99.90;;;;;;5001778;28;20042;-72
2023/08/30 05:24:33;;;;;;;1.02;0.93;;;11.90;99.90;;;;;;5006347;28;20388;-72
2023/08/30 05:26:59;;;;;;;0.60;0.60;;;11.90;99.90;;;;;;5001753;28;20150;-72
2023/08/30 05:29:25;;;;;;;1.05;0.95;;;12.00;99.90;;;;;;4990734;28;20123;-72
2023/08/30 05:31:50;;;;;;;0.40;0.40;;;12.00;99.90;;;;;;4988230;28;20400;-72
2023/08/30 05:34:17;;;;;;;0.40;0.40;;;12.10;99.90;;;;;;4998885;28;20042;-72
2023/08/30 05:36:43;;;;;;;0.38;0.38;;;12.10;99.90;;;;;;4986849;28;20077;-72
2023/08/30 05:39:08;;;;;;;1.55;1.02;;;12.10;99.90;;;;;;4991703;28;20123;-71
2023/08/30 05:41:34;;;;;;;0.60;0.60;;;12.20;99.90;;;;;;4991157;28;20045;-71
2023/08/30 05:44:00;;;;;;;0.70;0.70;;;12.20;99.90;;;;;;4986255;28;20060;-72
2023/08/30 05:46:25;;;;;;;1.33;1.00;;;12.30;99.90;;;;;;4991025;28;20560;-72
2023/08/30 05:48:51;;;;;;;0.88;0.88;;;12.30;99.90;;;;;;4989581;28;20849;-72
2023/08/30 05:51:16;;;;;;;0.73;0.73;;;12.30;99.90;;;;;;4986148;28;20046;-72
2023/08/30 05:53:42;;;;;;;0.73;0.73;;;12.40;99.90;;;;;;5002135;28;20072;-72
2023/08/30 05:56:08;;;;;;;0.73;0.65;;;12.40;99.90;;;;;;4982984;28;20050;-72
2023/08/30 05:58:33;;;;;;;1.58;1.20;;;12.50;99.90;;;;;;4982003;28;20622;-72
2023/08/30 06:01:03;;;;;;;0.90;0.90;;;12.50;99.90;;;;;;4966741;28;20062;-72
2023/08/30 06:03:28;;;;;;;1.27;0.82;;;12.50;99.90;;;;;;4971000;28;20069;-72
2023/08/30 06:05:54;;;;;;;0.45;0.45;;;12.60;99.90;;;;;;4968133;28;20047;-72
2023/08/30 06:08:20;;;;;;;0.95;0.95;;;12.60;99.90;;;;;;4960937;28;20587;-72
2023/08/30 06:10:46;;;;;;;1.55;0.60;;;12.70;99.90;;;;;;4959740;28;20051;-72
2023/08/30 06:13:12;;;;;;;0.52;0.52;;;12.70;99.90;;;;;;4970709;28;20905;-72
2023/08/30 06:15:39;;;;;;;0.65;0.65;;;12.70;99.90;;;;;;4971311;28;20211;-72
2023/08/30 06:18:04;;;;;;;0.40;0.40;;;12.70;99.90;;;;;;4966659;28;20086;-72
2023/08/30 06:20:30;;;;;;;0.68;0.65;;;12.80;99.90;;;;;;4959987;28;20097;-72
2023/08/30 06:22:58;;;;;;;1.00;0.98;;;12.80;99.90;;;;;;4978150;28;20472;-72
2023/08/30 06:25:24;;;;;;;0.60;0.60;;;12.90;99.90;;;;;;4982318;28;20460;-72
2023/08/30 06:27:59;;;;;;;1.50;0.90;;;12.90;99.90;;;;;;4964998;28;20100;-72
2023/08/30 06:30:29;;;;;;;0.52;0.52;;;12.90;99.90;;;;;;4969026;28;20089;-72
2023/08/30 06:32:55;;;;;;;0.57;0.57;;;13.00;99.90;;;;;;4979713;28;20623;-72
2023/08/30 06:35:21;;;;;;;0.75;0.75;;;13.00;99.90;;;;;;4979357;28;20061;-72
2023/08/30 06:37:47;;;;;;;0.68;0.68;;;13.10;99.90;;;;;;4980910;28;20050;-72
2023/08/30 06:40:12;;;;;;;0.80;0.80;;;13.10;99.90;;;;;;4976270;28;20046;-72
2023/08/30 06:42:38;;;;;;;0.40;0.40;;;13.10;99.90;;;;;;4983813;28;20553;-72
2023/08/30 06:45:04;;;;;;;0.50;0.50;;;13.20;99.90;;;;;;4964372;28;20054;-72
2023/08/30 06:47:30;;;;;;;1.13;1.02;;;13.20;99.90;;;;;;4967984;28;20042;-72
2023/08/30 06:49:57;;;;;;;0.60;0.60;;;13.30;99.90;;;;;;4979719;28;20046;-72
2023/08/30 06:52:23;;;;;;;0.30;0.30;;;13.40;99.90;;;;;;4969529;28;21184;-72
2023/08/30 06:54:49;;;;;;;0.50;0.50;;;13.50;99.90;;;;;;4985229;28;20050;-72
2023/08/30 06:57:15;;;;;;;1.08;0.98;;;13.50;99.90;;;;;;4965069;28;20057;-72
2023/08/30 06:59:41;;;;;;;1.45;1.35;;;13.60;99.90;;;;;;4985847;28;20055;-72
2023/08/30 07:02:07;;;;;;;0.73;0.73;;;13.60;99.90;;;;;;4989490;28;20210;-72
2023/08/30 07:04:32;;;;;;;0.70;0.70;;;13.70;99.90;;;;;;5002873;28;20056;-72
2023/08/30 07:06:58;;;;;;;0.70;0.70;;;13.70;99.90;;;;;;4994132;28;20092;-72
2023/08/30 07:09:28;;;;;;;0.77;0.68;;;13.80;99.90;;;;;;4985016;28;20102;-73
2023/08/30 07:11:55;;;;;;;1.02;1.02;;;13.90;99.90;;;;;;4988468;28;20077;-72
2023/08/30 07:14:20;;;;;;;0.60;0.60;;;13.90;99.90;;;;;;4999456;28;20060;-72
2023/08/30 07:16:46;;;;;;;0.55;0.55;;;14.00;99.90;;;;;;5003048;28;20423;-72
2023/08/30 07:19:12;;;;;;;0.82;0.82;;;14.10;99.90;;;;;;4990892;28;20513;-72
2023/08/30 07:21:38;;;;;;;0.68;0.68;;;14.20;99.90;;;;;;5000144;28;20053;-72
2023/08/30 07:24:06;;;;;;;0.73;0.73;;;14.20;99.90;;;;;;4987782;28;20085;-72
2023/08/30 07:26:32;;;;;;;;;;;14.20;99.90;;;;;;4980798;28;20046;-72
2023/08/30 07:28:57;;;;;;;2.00;1.63;;;14.30;99.90;;;;;;4989332;28;19932;-72
2023/08/30 07:31:23;;;;;;;0.73;0.73;;;14.30;99.90;;;;;;5004064;28;20061;-72
2023/08/30 07:33:49;;;;;;;1.10;1.08;;;14.30;99.90;;;;;;5004241;28;20052;-72
2023/08/30 07:36:14;;;;;;;0.57;0.57;;;14.30;99.90;;;;;;4983735;28;20514;-72
2023/08/30 07:38:40;;;;;;;0.57;0.57;;;14.40;99.90;;;;;;4988212;28;20133;-72
2023/08/30 07:41:06;;;;;;;0.40;0.40;;;14.40;99.90;;;;;;4998877;28;20128;-72
2023/08/30 07:43:31;;;;;;;0.70;0.70;;;14.40;99.90;;;;;;4987651;28;20045;-72
2023/08/30 07:45:58;;;;;;;0.50;0.50;;;14.50;99.90;;;;;;5003646;28;20054;-72
2023/08/30 07:48:24;;;;;;;0.70;0.70;;;14.50;99.90;;;;;;4987652;28;20049;-72
2023/08/30 07:50:50;;;;;;;0.40;0.40;;;14.60;99.90;;;;;;4988473;28;20105;-72
2023/08/30 07:53:16;;;;;;;0.65;0.65;;;14.70;99.90;;;;;;5004597;28;20046;-72
2023/08/30 07:55:41;;;;;;;0.50;0.50;;;14.70;99.90;;;;;;4989503;28;20057;-72
2023/08/30 07:58:10;;;;;;;0.98;0.93;;;14.80;99.90;;;;;;5003672;28;20046;-72
2023/08/30 08:00:35;;;;;;;0.38;0.38;;;14.90;99.90;;;;;;4978312;28;20070;-72
2023/08/30 08:03:02;;;;;;;1.38;1.35;;;15.00;99.90;;;;;;4983819;28;20057;-72
2023/08/30 08:05:27;;;;;;;0.75;0.75;;;15.10;99.90;;;;;;5003267;28;20563;-72
2023/08/30 08:07:53;;;;;;;1.25;1.15;;;15.30;99.90;;;;;;4971811;28;20101;-72
2023/08/30 08:10:19;;;;;;;0.93;0.93;;;15.40;99.90;;;;;;4996601;28;20129;-72
2023/08/30 08:12:45;;;;;;;0.57;0.57;;;15.50;99.90;;;;;;5003330;28;20054;-72
2023/08/30 08:15:11;;;;;;;3.42;0.95;;;15.70;99.90;;;;;;4984720;28;20568;-72
2023/08/30 08:17:36;;;;;;;1.65;1.10;;;16.00;99.90;;;;;;4988028;28;20057;-72
2023/08/30 08:20:05;;;;;;;0.50;0.50;;;16.20;99.90;;;;;;4988284;28;20073;-72
2023/08/30 08:22:31;;;;;;;2.05;1.95;;;16.50;99.90;;;;;;4984775;28;20556;-72
2023/08/30 08:24:57;;;;;;;0.95;0.95;;;16.70;99.90;;;;;;4987164;28;20042;-72
2023/08/30 08:27:24;;;;;;;0.30;0.30;;;16.90;99.90;;;;;;4987816;28;20406;-72
2023/08/30 08:29:52;;;;;;;0.40;0.40;;;17.00;99.90;;;;;;4988474;28;20517;-72
2023/08/30 08:32:18;;;;;;;0.85;0.85;;;17.00;99.90;;;;;;4986231;28;20053;-72
2023/08/30 08:34:43;;;;;;;1.17;1.17;;;17.10;99.90;;;;;;4989398;28;20050;-72
2023/08/30 08:37:09;;;;;;;0.70;0.70;;;17.10;99.90;;;;;;4991584;28;20475;-72
2023/08/30 08:39:36;;;;;;;0.90;0.90;;;17.10;99.90;;;;;;4986529;28;20061;-71
2023/08/30 08:42:02;;;;;;;0.50;0.50;;;17.10;99.90;;;;;;5011051;28;20052;-72
2023/08/30 08:44:32;;;;;;;1.23;1.23;;;17.10;99.90;;;;;;5004552;28;20058;-72
2023/08/30 08:46:58;;;;;;;1.77;0.77;;;17.10;99.90;;;;;;5001983;28;20058;-71
2023/08/30 08:49:28;;;;;;;0.98;0.98;;;17.10;99.90;;;;;;4988702;28;20046;-72
2023/08/30 08:51:54;;;;;;;0.30;0.30;;;17.10;99.90;;;;;;4985534;28;20050;-72
2023/08/30 08:54:20;;;;;;;1.45;1.17;;;17.20;99.90;;;;;;4992610;28;20144;-72
2023/08/30 08:56:45;;;;;;;0.60;0.60;;;17.20;99.90;;;;;;5009508;28;20153;-72
2023/08/30 08:59:11;;;;;;;1.70;0.75;;;17.30;99.90;;;;;;4989922;28;20114;-72
2023/08/30 09:01:42;;;;;;;0.63;0.60;;;17.40;99.90;;;;;;4985071;28;20141;-72
2023/08/30 09:04:09;;;;;;;0.80;0.80;;;17.40;99.90;;;;;;4989354;28;20532;-71
2023/08/30 09:06:36;;;;;;;0.65;0.65;;;17.50;99.90;;;;;;5004721;28;20052;-71
2023/08/30 09:09:03;;;;;;;0.77;0.77;;;17.50;99.90;;;;;;4982497;28;20046;-72
2023/08/30 09:11:29;;;;;;;0.38;0.38;;;17.50;99.90;;;;;;4989848;28;20054;-71
2023/08/30 09:13:55;;;;;;;0.73;0.73;;;17.60;99.90;;;;;;4999437;28;20116;-71
2023/08/30 09:16:21;;;;;;;1.63;1.52;;;17.60;99.90;;;;;;4991333;28;20121;-72
2023/08/30 09:18:58;;;;;;;2.67;1.27;;;17.60;99.90;;;;;;5002848;28;20046;-72
2023/08/30 09:21:24;;;;;;;0.47;0.47;;;17.60;99.90;;;;;;4989581;28;20050;-72
2023/08/30 09:24:06;;;;;;;1.85;1.75;;;17.50;99.90;;;;;;5000241;28;20057;-71
2023/08/30 09:26:34;;;;;;;1.67;1.58;;;17.40;99.90;;;;;;4988758;28;20049;-72
2023/08/30 09:29:04;;;;;;;0.55;0.55;;;17.40;99.90;;;;;;4989891;28;20053;-72
2023/08/30 09:31:42;;;;;;;0.85;0.85;;;17.30;99.90;;;;;;5008102;28;20053;-72
2023/08/30 09:34:08;;;;;;;0.50;0.50;;;17.30;99.90;;;;;;4987384;28;20531;-72
2023/08/30 09:36:38;;;;;;;0.60;0.60;;;17.40;99.90;;;;;;4984534;28;20050;-71
2023/08/30 09:39:15;;;;;;;1.15;0.93;;;17.30;99.90;;;;;;5006104;28;20929;-72
2023/08/30 09:41:45;;;;;;;0.47;0.47;;;17.30;99.90;;;;;;4993028;28;20046;-72
2023/08/30 09:44:15;;;;;;;0.40;0.40;;;17.20;99.90;;;;;;4999753;28;20046;-71
2023/08/30 09:46:46;;;;;;;0.85;0.50;;;17.10;99.90;;;;;;4989653;28;20038;-72
2023/08/30 09:49:12;;;;;;;0.68;0.63;;;17.10;99.90;;;;;;4985183;28;20047;-72
2023/08/30 09:51:42;;;;;;;3.50;0.43;;;17.10;99.90;;;;;;5005312;28;20546;-72
2023/08/30 09:54:15;;;;;;;0.50;0.50;;;17.10;99.90;;;;;;4983957;28;20069;-72
2023/08/30 09:56:41;;;;;;;0.50;0.50;;;17.00;99.90;;;;;;4988421;28;20046;-71
2023/08/30 09:59:14;;;;;;;1.10;1.10;;;17.00;99.90;;;;;;4990610;28;20045;-73
2023/08/30 10:01:40;;;;;;;1.02;1.02;;;17.00;99.90;;;;;;4990337;28;20064;-71
2023/08/30 10:04:10;;;;;;;0.68;0.68;;;17.00;99.90;;;;;;4977863;28;20172;-72
2023/08/30 10:06:39;;;;;;;2.28;0.70;;;16.90;99.90;;;;;;5001535;28;20076;-72
2023/08/30 10:09:07;;;;;;;1.05;1.05;;;16.80;99.90;;;;;;4996356;28;20053;-72
2023/08/30 10:11:37;;;;;;;1.10;1.10;;;16.70;99.90;;;;;;4986392;28;20052;-72
2023/08/30 10:14:05;;;;;;;0.55;0.55;;;16.60;99.90;;;;;;4987109;28;20103;-72
2023/08/30 10:16:51;;;;;;;0.87;0.87;;;16.60;99.90;;;;;;4986261;28;20072;-72
2023/08/30 10:19:21;;;;;;;0.30;0.30;;;16.60;99.90;;;;;;4987492;28;20312;-72
2023/08/30 10:21:51;;;;;;;0.40;0.40;;;16.60;99.90;;;;;;4990202;28;20068;-72
2023/08/30 10:24:20;;;;;;;0.40;0.40;;;16.50;99.90;;;;;;4990114;28;20068;-72
2023/08/30 10:26:48;;;;;;;0.50;0.50;;;16.40;99.90;;;;;;4990546;28;20054;-73
2023/08/30 10:29:17;;;;;;;0.50;0.50;;;16.40;99.90;;;;;;4989900;28;20128;-73
2023/08/30 10:31:43;;;;;;;0.73;0.40;;;16.40;99.90;;;;;;4997710;28;20050;-72
2023/08/30 10:34:21;;;;;;;0.30;0.30;;;16.40;99.90;;;;;;5001666;28;20129;-73
2023/08/30 10:36:57;;;;;;;0.50;0.50;;;16.40;99.90;;;;;;4990688;28;20517;-73
2023/08/30 10:39:35;;;;;;;0.40;0.40;;;16.40;99.90;;;;;;4989298;28;20121;-73
2023/08/30 10:42:06;;;;;;;;;;;16.40;99.90;;;;;;4987941;28;20129;-73
2023/08/30 10:44:32;;;;;;;0.30;0.30;;;16.50;99.90;;;;;;4982665;28;19925;-73
2023/08/30 10:47:01;;;;;;;0.30;0.30;;;16.60;99.90;;;;;;4997542;28;20101;-73
2023/08/30 10:49:27;;;;;;;0.40;0.40;;;16.70;99.90;;;;;;4987386;28;20072;-73
2023/08/30 10:52:00;;;;;;;0.32;0.32;;;16.80;99.90;;;;;;4985311;28;20479;-72
2023/08/30 10:54:40;;;;;;;0.40;0.40;;;16.90;99.90;;;;;;4989149;28;20054;-73
2023/08/30 10:57:12;;;;;;;0.45;0.45;;;16.90;99.90;;;;;;5005078;28;20057;-72
2023/08/30 10:59:37;;;;;;;0.43;0.43;;;16.90;99.90;;;;;;4983513;28;20513;-73
2023/08/30 11:02:04;;;;;;;0.50;0.50;;;16.80;99.90;;;;;;4987691;28;20058;-73
2023/08/30 11:04:30;;;;;;;0.77;0.77;;;16.80;99.90;;;;;;4989082;28;20054;-72
2023/08/30 11:06:56;;;;;;;0.63;0.63;;;16.80;99.90;;;;;;4988248;28;20419;-73
2023/08/30 11:09:23;;;;;;;1.60;1.33;;;16.80;99.90;;;;;;4973602;28;20403;-73
2023/08/30 11:11:51;;;;;;;0.55;0.55;;;16.70;99.90;;;;;;4987289;28;20120;-73
2023/08/30 11:14:18;;;;;;;0.57;0.57;;;16.70;99.90;;;;;;4987111;28;20132;-73
2023/08/30 11:16:44;;;;;;;0.40;0.40;;;16.60;99.90;;;;;;4987786;28;20053;-73
2023/08/30 11:19:11;;;;;;;0.43;0.43;;;16.60;99.90;;;;;;4972056;28;20128;-73
2023/08/30 11:21:43;;;;;;;0.30;0.30;;;16.60;99.90;;;;;;4982740;28;20522;-73
2023/08/30 11:24:09;;;;;;;0.73;0.68;;;16.60;99.90;;;;;;4992470;28;20061;-73
2023/08/30 11:26:35;;;;;;;0.40;0.40;;;16.50;99.90;;;;;;4990270;28;20411;-73
2023/08/30 11:29:05;;;;;;;1.33;1.27;;;16.60;99.90;;;;;;4986359;28;20214;-73
2023/08/30 11:31:31;;;;;;;1.58;0.73;;;16.50;99.90;;;;;;4993178;28;20046;-73
2023/08/30 11:33:58;;;;;;;0.50;0.50;;;16.40;99.90;;;;;;4986928;28;20403;-73
2023/08/30 11:36:32;;;;;;;0.40;0.40;;;16.40;99.90;;;;;;4989684;28;20042;-73
2023/08/30 11:38:58;;;;;;;0.50;0.50;;;16.40;99.90;;;;;;4985583;28;20042;-73
2023/08/30 11:41:25;;;;;;;0.30;0.30;;;16.40;99.90;;;;;;4987937;28;20053;-72
2023/08/30 11:43:51;;;;;;;0.30;0.30;;;16.30;99.90;;;;;;4995677;28;20049;-72
2023/08/30 11:46:18;;;;;;;0.50;0.50;;;16.20;99.90;;;;;;4993030;28;20518;-72
2023/08/30 11:48:44;;;;;;;0.30;0.30;;;16.20;99.90;;;;;;4989830;28;20046;-72
2023/08/30 11:51:11;;;;;;;0.20;0.20;;;16.20;99.90;;;;;;4988888;28;20046;-72
2023/08/30 11:53:38;;;;;;;0.30;0.30;;;16.20;99.90;;;;;;4992196;28;20189;-72
2023/08/30 11:56:07;;;;;;;0.57;0.57;;;16.20;99.90;;;;;;4969802;28;20870;-72
2023/08/30 11:58:36;;;;;;;0.40;0.40;;;16.20;99.90;;;;;;4983830;28;20041;-72
2023/08/30 12:01:03;;;;;;;0.30;0.30;;;16.20;99.90;;;;;;5004485;28;20058;-75
2023/08/30 12:03:30;;;;;;;0.40;0.40;;;16.20;99.90;;;;;;4996622;28;20082;-73
2023/08/30 12:05:57;;;;;;;0.30;0.30;;;16.20;99.90;;;;;;4979277;28;20069;-73
2023/08/30 12:08:27;;;;;;;0.60;0.60;;;16.20;99.90;;;;;;5004611;28;20037;-73
2023/08/30 12:10:55;;;;;;;0.35;0.35;;;16.30;99.90;;;;;;5009515;28;20058;-73
2023/08/30 12:13:22;;;;;;;;;;;16.30;99.90;;;;;;4989394;28;20042;-72
2023/08/30 12:15:49;;;;;;;0.45;0.45;;;16.30;99.90;;;;;;4986049;28;19925;-72
2023/08/30 12:18:14;;;;;;;0.90;0.90;;;16.30;99.90;;;;;;4989541;28;20655;-72
2023/08/30 12:20:52;;;;;;;0.30;0.30;;;16.30;99.90;;;;;;4991400;28;20186;-72
2023/08/30 12:23:25;;;;;;;1.40;0.68;;;16.30;99.90;;;;;;4991039;28;20055;-73
2023/08/30 12:26:01;;;;;;;0.30;0.30;;;16.30;99.90;;;;;;4986117;28;20054;-73
2023/08/30 12:28:32;;;;;;;0.45;0.45;;;16.30;99.90;;;;;;4991273;28;20154;-73
2023/08/30 12:30:58;;;;;;;2.10;0.77;;;16.30;99.90;;;;;;4980149;28;20141;-74
2023/08/30 12:33:25;;;;;;;0.38;0.38;;;16.40;99.90;;;;;;4981731;28;20772;-73
2023/08/30 12:35:52;;;;;;;0.63;0.63;;;16.40;99.90;;;;;;4991581;28;20049;-74
2023/08/30 12:38:18;;;;;;;0.50;0.50;;;16.40;99.90;;;;;;4992431;28;20049;-73
2023/08/30 12:40:45;;;;;;;0.52;0.52;;;16.30;99.90;;;;;;4996306;28;20061;-73
2023/08/30 12:43:11;;;;;;;0.20;0.20;;;16.40;99.90;;;;;;4986246;28;20119;-73
2023/08/30 12:45:38;;;;;;;0.32;0.32;;;16.40;99.90;;;;;;5008771;28;20113;-73
2023/08/30 12:48:04;;;;;;;0.68;0.68;;;16.50;99.90;;;;;;4987626;28;20058;-73